sensor_id;sensor_type;location;lat;lon;timestamp;P1;durP1;ratioP1;P2;durP2;ratioP2
32964;SDS011;19317;48.226;11.686;2023-06-26T00:01:13;8.27;;;7.47;;
32964;SDS011;19317;48.226;11.686;2023-06-26T00:06:03;8.27;;;7.47;;
32964;SDS011;19317;48.226;11.686;2023-06-26T00:10:54;8.10;;;7.30;;
32964;SDS011;19317;48.226;11.686;2023-06-26T00:15:44;8.47;;;7.40;;
32964;SDS011;19317;48.226;11.686;2023-06-26T00:20:35;9.23;;;7.50;;
32964;SDS011;19317;48.226;11.686;2023-06-26T00:25:25;8.23;;;7.43;;
32964;SDS011;19317;48.226;11.686;2023-06-26T00:30:16;8.73;;;7.83;;
32964;SDS011;19317;48.226;11.686;2023-06-26T00:35:06;16.67;;;15.07;;
32964;SDS011;19317;48.226;11.686;2023-06-26T00:39:57;8.20;;;7.40;;
32964;SDS011;19317;48.226;11.686;2023-06-26T00:44:47;9.00;;;7.93;;
32964;SDS011;19317;48.226;11.686;2023-06-26T00:49:37;8.30;;;7.57;;
32964;SDS011;19317;48.226;11.686;2023-06-26T00:54:28;8.20;;;7.40;;
32964;SDS011;19317;48.226;11.686;2023-06-26T00:59:18;9.00;;;7.33;;
32964;SDS011;19317;48.226;11.686;2023-06-26T01:04:09;8.47;;;7.57;;
32964;SDS011;19317;48.226;11.686;2023-06-26T01:08:59;8.10;;;7.30;;
32964;SDS011;19317;48.226;11.686;2023-06-26T01:13:50;8.20;;;7.40;;
32964;SDS011;19317;48.226;11.686;2023-06-26T01:18:41;8.80;;;7.60;;
32964;SDS011;19317;48.226;11.686;2023-06-26T01:23:37;8.20;;;7.40;;
32964;SDS011;19317;48.226;11.686;2023-06-26T01:28:34;8.37;;;7.57;;
32964;SDS011;19317;48.226;11.686;2023-06-26T01:33:27;8.93;;;8.03;;
32964;SDS011;19317;48.226;11.686;2023-06-26T01:38:19;8.87;;;7.97;;
32964;SDS011;19317;48.226;11.686;2023-06-26T01:48:27;9.43;;;7.60;;
32964;SDS011;19317;48.226;11.686;2023-06-26T01:53:24;9.17;;;7.97;;
32964;SDS011;19317;48.226;11.686;2023-06-26T01:58:19;8.83;;;7.93;;
32964;SDS011;19317;48.226;11.686;2023-06-26T02:03:13;10.13;;;7.70;;
32964;SDS011;19317;48.226;11.686;2023-06-26T02:08:04;8.80;;;7.90;;
32964;SDS011;19317;48.226;11.686;2023-06-26T02:12:55;8.97;;;8.07;;
32964;SDS011;19317;48.226;11.686;2023-06-26T02:17:45;9.30;;;8.40;;
32964;SDS011;19317;48.226;11.686;2023-06-26T02:22:36;8.80;;;7.90;;
32964;SDS011;19317;48.226;11.686;2023-06-26T02:27:26;8.83;;;8.03;;
32964;SDS011;19317;48.226;11.686;2023-06-26T02:32:17;9.00;;;8.10;;
32964;SDS011;19317;48.226;11.686;2023-06-26T02:37:07;9.63;;;8.63;;
32964;SDS011;19317;48.226;11.686;2023-06-26T02:41:57;9.73;;;8.40;;
32964;SDS011;19317;48.226;11.686;2023-06-26T02:46:48;9.43;;;8.43;;
32964;SDS011;19317;48.226;11.686;2023-06-26T02:51:38;8.80;;;7.93;;
32964;SDS011;19317;48.226;11.686;2023-06-26T02:56:29;9.37;;;8.33;;
32964;SDS011;19317;48.226;11.686;2023-06-26T03:01:19;8.77;;;7.80;;
32964;SDS011;19317;48.226;11.686;2023-06-26T03:06:10;9.47;;;8.50;;
32964;SDS011;19317;48.226;11.686;2023-06-26T03:11:00;8.73;;;7.93;;
32964;SDS011;19317;48.226;11.686;2023-06-26T03:15:50;9.07;;;7.70;;
32964;SDS011;19317;48.226;11.686;2023-06-26T03:20:41;9.53;;;8.53;;
32964;SDS011;19317;48.226;11.686;2023-06-26T03:25:31;9.13;;;8.23;;
32964;SDS011;19317;48.226;11.686;2023-06-26T03:30:22;20.77;;;16.43;;
32964;SDS011;19317;48.226;11.686;2023-06-26T03:35:12;10.83;;;9.80;;
32964;SDS011;19317;48.226;11.686;2023-06-26T03:40:03;9.23;;;8.33;;
32964;SDS011;19317;48.226;11.686;2023-06-26T03:44:53;8.73;;;7.90;;
32964;SDS011;19317;48.226;11.686;2023-06-26T03:49:44;8.87;;;7.97;;
32964;SDS011;19317;48.226;11.686;2023-06-26T03:54:34;9.20;;;8.30;;
32964;SDS011;19317;48.226;11.686;2023-06-26T03:59:25;8.53;;;7.73;;
32964;SDS011;19317;48.226;11.686;2023-06-26T04:04:15;8.37;;;7.57;;
32964;SDS011;19317;48.226;11.686;2023-06-26T04:09:05;9.10;;;8.17;;
32964;SDS011;19317;48.226;11.686;2023-06-26T04:13:56;9.67;;;8.40;;
32964;SDS011;19317;48.226;11.686;2023-06-26T04:18:46;10.13;;;8.83;;
32964;SDS011;19317;48.226;11.686;2023-06-26T04:23:37;12.33;;;8.17;;
32964;SDS011;19317;48.226;11.686;2023-06-26T04:28:28;9.70;;;7.43;;
32964;SDS011;19317;48.226;11.686;2023-06-26T04:33:19;9.87;;;8.23;;
32964;SDS011;19317;48.226;11.686;2023-06-26T04:38:09;9.63;;;7.97;;
32964;SDS011;19317;48.226;11.686;2023-06-26T04:43:00;10.43;;;8.00;;
32964;SDS011;19317;48.226;11.686;2023-06-26T04:47:51;12.90;;;8.60;;
32964;SDS011;19317;48.226;11.686;2023-06-26T04:52:41;9.43;;;7.63;;
32964;SDS011;19317;48.226;11.686;2023-06-26T04:57:31;9.27;;;8.37;;
32964;SDS011;19317;48.226;11.686;2023-06-26T05:02:22;11.60;;;8.60;;
32964;SDS011;19317;48.226;11.686;2023-06-26T05:07:12;12.40;;;7.97;;
32964;SDS011;19317;48.226;11.686;2023-06-26T05:12:03;8.47;;;7.50;;
32964;SDS011;19317;48.226;11.686;2023-06-26T05:16:54;11.80;;;7.33;;
32964;SDS011;19317;48.226;11.686;2023-06-26T05:21:44;9.17;;;7.60;;
32964;SDS011;19317;48.226;11.686;2023-06-26T05:26:35;10.37;;;8.30;;
32964;SDS011;19317;48.226;11.686;2023-06-26T05:31:26;12.37;;;8.47;;
32964;SDS011;19317;48.226;11.686;2023-06-26T05:36:17;11.00;;;8.33;;
32964;SDS011;19317;48.226;11.686;2023-06-26T05:41:08;9.53;;;8.00;;
32964;SDS011;19317;48.226;11.686;2023-06-26T05:45:59;10.93;;;8.37;;
32964;SDS011;19317;48.226;11.686;2023-06-26T05:50:49;10.53;;;8.53;;
32964;SDS011;19317;48.226;11.686;2023-06-26T05:55:40;10.77;;;8.03;;
32964;SDS011;19317;48.226;11.686;2023-06-26T06:00:31;11.37;;;8.50;;
32964;SDS011;19317;48.226;11.686;2023-06-26T06:05:21;10.17;;;7.63;;
32964;SDS011;19317;48.226;11.686;2023-06-26T06:10:12;12.23;;;8.43;;
32964;SDS011;19317;48.226;11.686;2023-06-26T06:15:03;9.27;;;7.90;;
32964;SDS011;19317;48.226;11.686;2023-06-26T06:19:53;10.67;;;7.77;;
32964;SDS011;19317;48.226;11.686;2023-06-26T06:24:44;9.67;;;8.27;;
32964;SDS011;19317;48.226;11.686;2023-06-26T06:29:34;9.67;;;7.40;;
32964;SDS011;19317;48.226;11.686;2023-06-26T06:34:24;15.20;;;7.87;;
32964;SDS011;19317;48.226;11.686;2023-06-26T06:39:15;9.87;;;7.60;;
32964;SDS011;19317;48.226;11.686;2023-06-26T06:44:06;9.00;;;7.30;;
32964;SDS011;19317;48.226;11.686;2023-06-26T06:48:56;8.73;;;7.57;;
32964;SDS011;19317;48.226;11.686;2023-06-26T06:53:47;9.87;;;7.67;;
32964;SDS011;19317;48.226;11.686;2023-06-26T06:58:37;11.50;;;7.60;;
32964;SDS011;19317;48.226;11.686;2023-06-26T07:03:27;10.53;;;7.20;;
32964;SDS011;19317;48.226;11.686;2023-06-26T07:08:18;8.83;;;7.50;;
32964;SDS011;19317;48.226;11.686;2023-06-26T07:13:08;7.70;;;6.87;;
32964;SDS011;19317;48.226;11.686;2023-06-26T07:17:59;8.33;;;7.50;;
32964;SDS011;19317;48.226;11.686;2023-06-26T07:22:49;7.87;;;6.20;;
32964;SDS011;19317;48.226;11.686;2023-06-26T07:27:40;7.20;;;6.27;;
32964;SDS011;19317;48.226;11.686;2023-06-26T07:32:31;7.10;;;6.40;;
32964;SDS011;19317;48.226;11.686;2023-06-26T07:37:21;7.83;;;6.80;;
32964;SDS011;19317;48.226;11.686;2023-06-26T07:42:12;6.70;;;6.00;;
32964;SDS011;19317;48.226;11.686;2023-06-26T07:47:03;8.57;;;6.57;;
32964;SDS011;19317;48.226;11.686;2023-06-26T07:51:53;7.73;;;6.50;;
32964;SDS011;19317;48.226;11.686;2023-06-26T08:01:47;7.13;;;6.27;;
32964;SDS011;19317;48.226;11.686;2023-06-26T08:06:38;7.33;;;6.60;;
32964;SDS011;19317;48.226;11.686;2023-06-26T08:11:28;7.83;;;6.83;;
32964;SDS011;19317;48.226;11.686;2023-06-26T08:16:18;7.83;;;7.03;;
32964;SDS011;19317;48.226;11.686;2023-06-26T08:21:09;8.00;;;7.20;;
32964;SDS011;19317;48.226;11.686;2023-06-26T08:25:59;7.50;;;6.37;;
32964;SDS011;19317;48.226;11.686;2023-06-26T08:30:50;7.27;;;6.67;;
32964;SDS011;19317;48.226;11.686;2023-06-26T08:35:40;7.33;;;6.63;;
32964;SDS011;19317;48.226;11.686;2023-06-26T08:40:31;7.77;;;6.77;;
32964;SDS011;19317;48.226;11.686;2023-06-26T08:45:22;8.47;;;6.67;;
32964;SDS011;19317;48.226;11.686;2023-06-26T08:50:13;9.23;;;7.30;;
32964;SDS011;19317;48.226;11.686;2023-06-26T08:55:07;7.40;;;6.60;;
32964;SDS011;19317;48.226;11.686;2023-06-26T08:59:59;6.90;;;6.07;;
32964;SDS011;19317;48.226;11.686;2023-06-26T09:04:50;7.27;;;6.30;;
32964;SDS011;19317;48.226;11.686;2023-06-26T09:09:40;7.43;;;6.60;;
32964;SDS011;19317;48.226;11.686;2023-06-26T09:14:31;6.10;;;5.50;;
32964;SDS011;19317;48.226;11.686;2023-06-26T09:19:22;6.70;;;5.73;;
32964;SDS011;19317;48.226;11.686;2023-06-26T09:24:12;6.00;;;5.40;;
32964;SDS011;19317;48.226;11.686;2023-06-26T09:29:04;6.47;;;5.77;;
32964;SDS011;19317;48.226;11.686;2023-06-26T09:33:57;6.27;;;5.67;;
32964;SDS011;19317;48.226;11.686;2023-06-26T09:38:48;6.20;;;5.70;;
32964;SDS011;19317;48.226;11.686;2023-06-26T09:43:46;6.33;;;5.23;;
32964;SDS011;19317;48.226;11.686;2023-06-26T09:48:40;5.37;;;4.87;;
32964;SDS011;19317;48.226;11.686;2023-06-26T09:53:30;5.57;;;5.13;;
32964;SDS011;19317;48.226;11.686;2023-06-26T09:58:25;5.33;;;4.93;;
32964;SDS011;19317;48.226;11.686;2023-06-26T10:03:17;5.40;;;5.00;;
32964;SDS011;19317;48.226;11.686;2023-06-26T10:08:08;5.60;;;5.10;;
32964;SDS011;19317;48.226;11.686;2023-06-26T10:12:59;5.37;;;4.87;;
32964;SDS011;19317;48.226;11.686;2023-06-26T10:17:55;6.27;;;5.67;;
32964;SDS011;19317;48.226;11.686;2023-06-26T10:22:47;5.73;;;5.13;;
32964;SDS011;19317;48.226;11.686;2023-06-26T10:27:47;6.20;;;5.23;;
32964;SDS011;19317;48.226;11.686;2023-06-26T10:32:42;6.70;;;5.23;;
32964;SDS011;19317;48.226;11.686;2023-06-26T10:37:44;5.53;;;4.90;;
32964;SDS011;19317;48.226;11.686;2023-06-26T10:42:36;5.63;;;5.17;;
32964;SDS011;19317;48.226;11.686;2023-06-26T10:47:29;5.90;;;5.40;;
32964;SDS011;19317;48.226;11.686;2023-06-26T10:52:21;5.30;;;4.80;;
32964;SDS011;19317;48.226;11.686;2023-06-26T10:57:11;5.00;;;4.60;;
32964;SDS011;19317;48.226;11.686;2023-06-26T11:02:13;4.70;;;4.30;;
32964;SDS011;19317;48.226;11.686;2023-06-26T11:12:14;5.30;;;4.90;;
32964;SDS011;19317;48.226;11.686;2023-06-26T11:17:29;5.60;;;5.13;;
32964;SDS011;19317;48.226;11.686;2023-06-26T11:22:21;5.60;;;5.10;;
32964;SDS011;19317;48.226;11.686;2023-06-26T11:27:14;5.35;;;4.85;;
32964;SDS011;19317;48.226;11.686;2023-06-26T11:32:04;5.28;;;4.70;;
32964;SDS011;19317;48.226;11.686;2023-06-26T11:36:56;5.47;;;5.00;;
32964;SDS011;19317;48.226;11.686;2023-06-26T11:41:46;5.75;;;5.25;;
32964;SDS011;19317;48.226;11.686;2023-06-26T11:46:37;5.82;;;5.32;;
32964;SDS011;19317;48.226;11.686;2023-06-26T11:51:28;6.15;;;5.63;;
32964;SDS011;19317;48.226;11.686;2023-06-26T11:56:18;6.28;;;5.68;;
32964;SDS011;19317;48.226;11.686;2023-06-26T12:01:09;5.85;;;5.18;;
32964;SDS011;19317;48.226;11.686;2023-06-26T12:05:59;6.43;;;5.40;;
32964;SDS011;19317;48.226;11.686;2023-06-26T12:10:50;7.22;;;4.40;;
32964;SDS011;19317;48.226;11.686;2023-06-26T12:15:40;5.50;;;5.00;;
32964;SDS011;19317;48.226;11.686;2023-06-26T12:20:31;6.05;;;5.50;;
32964;SDS011;19317;48.226;11.686;2023-06-26T12:25:24;6.60;;;6.00;;
32964;SDS011;19317;48.226;11.686;2023-06-26T12:30:15;6.68;;;5.97;;
32964;SDS011;19317;48.226;11.686;2023-06-26T12:35:05;6.32;;;5.72;;
32964;SDS011;19317;48.226;11.686;2023-06-26T12:39:57;6.00;;;5.50;;
32964;SDS011;19317;48.226;11.686;2023-06-26T12:44:47;7.55;;;6.03;;
32964;SDS011;19317;48.226;11.686;2023-06-26T12:49:39;5.45;;;4.95;;
32964;SDS011;19317;48.226;11.686;2023-06-26T12:54:32;6.55;;;5.88;;
32964;SDS011;19317;48.226;11.686;2023-06-26T12:59:23;6.15;;;5.53;;
32964;SDS011;19317;48.226;11.686;2023-06-26T13:04:14;6.20;;;5.60;;
32964;SDS011;19317;48.226;11.686;2023-06-26T13:09:05;5.90;;;5.40;;
32964;SDS011;19317;48.226;11.686;2023-06-26T13:13:56;6.20;;;5.60;;
32964;SDS011;19317;48.226;11.686;2023-06-26T13:18:47;6.15;;;5.60;;
32964;SDS011;19317;48.226;11.686;2023-06-26T13:23:37;7.05;;;6.45;;
32964;SDS011;19317;48.226;11.686;2023-06-26T13:28:28;6.18;;;5.65;;
32964;SDS011;19317;48.226;11.686;2023-06-26T13:33:18;6.03;;;5.45;;
32964;SDS011;19317;48.226;11.686;2023-06-26T13:38:08;6.88;;;5.97;;
32964;SDS011;19317;48.226;11.686;2023-06-26T13:42:59;7.45;;;5.68;;
32964;SDS011;19317;48.226;11.686;2023-06-26T13:47:49;6.35;;;5.85;;
32964;SDS011;19317;48.226;11.686;2023-06-26T13:52:40;8.15;;;6.50;;
32964;SDS011;19317;48.226;11.686;2023-06-26T13:57:31;7.70;;;6.57;;
32964;SDS011;19317;48.226;11.686;2023-06-26T14:02:21;6.53;;;5.93;;
32964;SDS011;19317;48.226;11.686;2023-06-26T14:07:12;6.57;;;6.03;;
32964;SDS011;19317;48.226;11.686;2023-06-26T14:12:03;6.50;;;5.90;;
32964;SDS011;19317;48.226;11.686;2023-06-26T14:16:54;6.32;;;5.82;;
32964;SDS011;19317;48.226;11.686;2023-06-26T14:21:44;6.28;;;5.75;;
32964;SDS011;19317;48.226;11.686;2023-06-26T14:26:35;6.40;;;5.75;;
32964;SDS011;19317;48.226;11.686;2023-06-26T14:31:25;6.43;;;5.93;;
32964;SDS011;19317;48.226;11.686;2023-06-26T14:36:17;6.65;;;5.82;;
32964;SDS011;19317;48.226;11.686;2023-06-26T14:41:08;6.63;;;5.93;;
32964;SDS011;19317;48.226;11.686;2023-06-26T14:45:58;6.60;;;5.90;;
32964;SDS011;19317;48.226;11.686;2023-06-26T14:50:49;6.35;;;5.65;;
32964;SDS011;19317;48.226;11.686;2023-06-26T14:55:39;6.57;;;5.93;;
32964;SDS011;19317;48.226;11.686;2023-06-26T15:00:30;6.65;;;6.05;;
32964;SDS011;19317;48.226;11.686;2023-06-26T15:05:20;6.75;;;5.90;;
32964;SDS011;19317;48.226;11.686;2023-06-26T15:10:11;6.63;;;6.05;;
32964;SDS011;19317;48.226;11.686;2023-06-26T15:15:01;6.70;;;5.80;;
32964;SDS011;19317;48.226;11.686;2023-06-26T15:19:52;6.70;;;6.10;;
32964;SDS011;19317;48.226;11.686;2023-06-26T15:24:42;7.35;;;6.47;;
32964;SDS011;19317;48.226;11.686;2023-06-26T15:29:33;6.38;;;5.88;;
32964;SDS011;19317;48.226;11.686;2023-06-26T15:34:23;6.40;;;5.90;;
32964;SDS011;19317;48.226;11.686;2023-06-26T15:39:14;8.02;;;5.95;;
32964;SDS011;19317;48.226;11.686;2023-06-26T15:44:05;6.43;;;5.93;;
32964;SDS011;19317;48.226;11.686;2023-06-26T15:48:55;6.38;;;5.85;;
32964;SDS011;19317;48.226;11.686;2023-06-26T15:53:46;6.38;;;5.78;;
32964;SDS011;19317;48.226;11.686;2023-06-26T15:58:37;6.82;;;6.15;;
32964;SDS011;19317;48.226;11.686;2023-06-26T16:03:28;7.15;;;5.93;;
32964;SDS011;19317;48.226;11.686;2023-06-26T16:08:18;6.88;;;6.13;;
32964;SDS011;19317;48.226;11.686;2023-06-26T16:13:09;8.02;;;6.47;;
32964;SDS011;19317;48.226;11.686;2023-06-26T16:17:59;7.15;;;6.07;;
32964;SDS011;19317;48.226;11.686;2023-06-26T16:22:50;6.88;;;5.95;;
32964;SDS011;19317;48.226;11.686;2023-06-26T16:27:41;6.85;;;6.25;;
32964;SDS011;19317;48.226;11.686;2023-06-26T16:32:32;9.60;;;6.15;;
32964;SDS011;19317;48.226;11.686;2023-06-26T16:37:22;6.75;;;5.97;;
32964;SDS011;19317;48.226;11.686;2023-06-26T16:42:12;6.65;;;6.05;;
32964;SDS011;19317;48.226;11.686;2023-06-26T16:47:03;6.95;;;6.07;;
32964;SDS011;19317;48.226;11.686;2023-06-26T16:51:54;10.38;;;6.70;;
32964;SDS011;19317;48.226;11.686;2023-06-26T16:56:45;7.13;;;6.43;;
32964;SDS011;19317;48.226;11.686;2023-06-26T17:01:35;7.82;;;6.60;;
32964;SDS011;19317;48.226;11.686;2023-06-26T17:06:26;8.80;;;5.97;;
32964;SDS011;19317;48.226;11.686;2023-06-26T17:11:16;7.33;;;6.60;;
32964;SDS011;19317;48.226;11.686;2023-06-26T17:16:06;7.67;;;6.77;;
32964;SDS011;19317;48.226;11.686;2023-06-26T17:20:57;8.73;;;6.43;;
32964;SDS011;19317;48.226;11.686;2023-06-26T17:25:47;7.23;;;6.53;;
32964;SDS011;19317;48.226;11.686;2023-06-26T17:30:38;8.23;;;7.53;;
32964;SDS011;19317;48.226;11.686;2023-06-26T17:35:29;8.07;;;7.27;;
32964;SDS011;19317;48.226;11.686;2023-06-26T17:40:19;7.93;;;6.83;;
32964;SDS011;19317;48.226;11.686;2023-06-26T17:45:10;7.53;;;6.83;;
32964;SDS011;19317;48.226;11.686;2023-06-26T17:50:02;7.07;;;6.47;;
32964;SDS011;19317;48.226;11.686;2023-06-26T17:54:53;7.50;;;5.87;;
32964;SDS011;19317;48.226;11.686;2023-06-26T17:59:43;8.93;;;5.60;;
32964;SDS011;19317;48.226;11.686;2023-06-26T18:04:35;6.77;;;5.90;;
32964;SDS011;19317;48.226;11.686;2023-06-26T18:09:26;6.67;;;6.03;;
32964;SDS011;19317;48.226;11.686;2023-06-26T18:14:16;6.77;;;6.17;;
32964;SDS011;19317;48.226;11.686;2023-06-26T18:19:07;6.10;;;5.60;;
32964;SDS011;19317;48.226;11.686;2023-06-26T18:23:57;6.70;;;6.07;;
32964;SDS011;19317;48.226;11.686;2023-06-26T18:28:48;6.90;;;5.97;;
32964;SDS011;19317;48.226;11.686;2023-06-26T18:33:38;6.90;;;5.93;;
32964;SDS011;19317;48.226;11.686;2023-06-26T18:38:28;8.00;;;6.83;;
32964;SDS011;19317;48.226;11.686;2023-06-26T18:43:19;11.30;;;7.30;;
32964;SDS011;19317;48.226;11.686;2023-06-26T18:48:10;7.47;;;6.77;;
32964;SDS011;19317;48.226;11.686;2023-06-26T18:53:00;7.87;;;6.43;;
32964;SDS011;19317;48.226;11.686;2023-06-26T18:57:51;7.90;;;6.20;;
32964;SDS011;19317;48.226;11.686;2023-06-26T19:02:41;7.00;;;6.40;;
32964;SDS011;19317;48.226;11.686;2023-06-26T19:07:32;7.60;;;6.77;;
32964;SDS011;19317;48.226;11.686;2023-06-26T19:12:22;7.43;;;6.63;;
32964;SDS011;19317;48.226;11.686;2023-06-26T19:17:13;8.33;;;7.30;;
32964;SDS011;19317;48.226;11.686;2023-06-26T19:22:03;8.13;;;7.33;;
32964;SDS011;19317;48.226;11.686;2023-06-26T19:26:54;8.13;;;7.37;;
32964;SDS011;19317;48.226;11.686;2023-06-26T19:31:44;8.10;;;7.40;;
32964;SDS011;19317;48.226;11.686;2023-06-26T19:36:35;8.60;;;6.97;;
32964;SDS011;19317;48.226;11.686;2023-06-26T19:41:25;8.47;;;7.10;;
32964;SDS011;19317;48.226;11.686;2023-06-26T19:46:16;8.70;;;7.10;;
32964;SDS011;19317;48.226;11.686;2023-06-26T19:51:06;7.87;;;7.07;;
32964;SDS011;19317;48.226;11.686;2023-06-26T19:55:56;7.43;;;6.67;;
32964;SDS011;19317;48.226;11.686;2023-06-26T20:00:47;9.63;;;7.00;;
32964;SDS011;19317;48.226;11.686;2023-06-26T20:05:37;7.43;;;6.37;;
32964;SDS011;19317;48.226;11.686;2023-06-26T20:10:28;7.20;;;6.53;;
32964;SDS011;19317;48.226;11.686;2023-06-26T20:15:18;8.77;;;6.07;;
32964;SDS011;19317;48.226;11.686;2023-06-26T20:20:09;8.73;;;6.47;;
32964;SDS011;19317;48.226;11.686;2023-06-26T20:25:00;7.43;;;6.43;;
32964;SDS011;19317;48.226;11.686;2023-06-26T20:29:50;7.63;;;6.80;;
32964;SDS011;19317;48.226;11.686;2023-06-26T20:34:41;7.50;;;6.70;;
32964;SDS011;19317;48.226;11.686;2023-06-26T20:39:31;7.43;;;6.60;;
32964;SDS011;19317;48.226;11.686;2023-06-26T20:44:22;8.50;;;6.43;;
32964;SDS011;19317;48.226;11.686;2023-06-26T20:49:13;7.20;;;6.50;;
32964;SDS011;19317;48.226;11.686;2023-06-26T20:54:03;10.73;;;6.93;;
32964;SDS011;19317;48.226;11.686;2023-06-26T20:58:54;8.17;;;6.70;;
32964;SDS011;19317;48.226;11.686;2023-06-26T21:03:45;8.47;;;6.23;;
32964;SDS011;19317;48.226;11.686;2023-06-26T21:08:35;7.60;;;6.70;;
32964;SDS011;19317;48.226;11.686;2023-06-26T21:13:26;10.53;;;6.30;;
32964;SDS011;19317;48.226;11.686;2023-06-26T21:18:16;6.30;;;5.70;;
32964;SDS011;19317;48.226;11.686;2023-06-26T21:23:07;7.83;;;5.87;;
32964;SDS011;19317;48.226;11.686;2023-06-26T21:27:57;8.23;;;6.23;;
32964;SDS011;19317;48.226;11.686;2023-06-26T21:32:47;8.77;;;6.27;;
32964;SDS011;19317;48.226;11.686;2023-06-26T21:37:38;6.93;;;5.53;;
32964;SDS011;19317;48.226;11.686;2023-06-26T21:42:28;5.77;;;5.17;;
32964;SDS011;19317;48.226;11.686;2023-06-26T21:47:19;5.30;;;4.80;;
32964;SDS011;19317;48.226;11.686;2023-06-26T21:52:10;5.10;;;4.60;;
32964;SDS011;19317;48.226;11.686;2023-06-26T21:57:01;6.20;;;4.40;;
32964;SDS011;19317;48.226;11.686;2023-06-26T22:01:52;5.30;;;3.90;;
32964;SDS011;19317;48.226;11.686;2023-06-26T22:06:42;5.83;;;4.10;;
32964;SDS011;19317;48.226;11.686;2023-06-26T22:11:33;5.63;;;3.80;;
32964;SDS011;19317;48.226;11.686;2023-06-26T22:16:23;4.73;;;3.60;;
32964;SDS011;19317;48.226;11.686;2023-06-26T22:21:14;5.50;;;3.60;;
32964;SDS011;19317;48.226;11.686;2023-06-26T22:26:04;4.63;;;3.90;;
32964;SDS011;19317;48.226;11.686;2023-06-26T22:30:55;4.80;;;3.50;;
32964;SDS011;19317;48.226;11.686;2023-06-26T22:35:45;5.60;;;3.90;;
32964;SDS011;19317;48.226;11.686;2023-06-26T22:40:36;5.70;;;3.80;;
32964;SDS011;19317;48.226;11.686;2023-06-26T22:45:26;6.50;;;3.50;;
32964;SDS011;19317;48.226;11.686;2023-06-26T22:50:17;5.83;;;3.63;;
32964;SDS011;19317;48.226;11.686;2023-06-26T22:55:07;5.53;;;3.20;;
32964;SDS011;19317;48.226;11.686;2023-06-26T22:59:58;5.80;;;4.10;;
32964;SDS011;19317;48.226;11.686;2023-06-26T23:04:49;4.53;;;3.90;;
32964;SDS011;19317;48.226;11.686;2023-06-26T23:09:40;5.30;;;4.00;;
32964;SDS011;19317;48.226;11.686;2023-06-26T23:14:31;4.03;;;3.50;;
32964;SDS011;19317;48.226;11.686;2023-06-26T23:19:21;5.57;;;4.03;;
32964;SDS011;19317;48.226;11.686;2023-06-26T23:24:12;4.73;;;3.40;;
32964;SDS011;19317;48.226;11.686;2023-06-26T23:29:02;3.97;;;3.17;;
32964;SDS011;19317;48.226;11.686;2023-06-26T23:33:53;3.37;;;2.77;;
32964;SDS011;19317;48.226;11.686;2023-06-26T23:38:44;4.90;;;3.37;;
32964;SDS011;19317;48.226;11.686;2023-06-26T23:43:34;11.83;;;3.47;;
32964;SDS011;19317;48.226;11.686;2023-06-26T23:48:25;5.87;;;3.07;;
32964;SDS011;19317;48.226;11.686;2023-06-26T23:53:15;4.10;;;3.30;;
32964;SDS011;19317;48.226;11.686;2023-06-26T23:58:06;4.57;;;3.27;;
